Time;durP1;ratioP1;P1;durP2;ratioP2;P2;SDS_P1;SDS_P2;PMS_P1;PMS_P2;Temp;Humidity;BMP_temperature;BMP_pressure;BME280_temperature;BME280_humidity;BME280_pressure;Samples;Min_cycle;Max_cycle;Signal;HPM_P1;HPM_P2
2021/08/25 00:02:04;;;;;;;4.33;3.77;;;;;;;;;;5077871;28;20536;-80
2021/08/25 00:04:32;;;;;;;6.37;3.60;;;;;;;;;;5077093;28;20543;-80
2021/08/25 00:06:59;;;;;;;7.30;4.20;;;;;;;;;;5077114;28;20934;-80
2021/08/25 00:09:26;;;;;;;6.07;4.13;;;;;;;;;;5077285;28;20563;-80
2021/08/25 00:11:54;;;;;;;6.70;4.17;;;;;;;;;;5077901;28;20444;-80
2021/08/25 00:14:22;;;;;;;7.53;3.80;;;;;;;;;;5076973;28;20799;-79
2021/08/25 00:16:49;;;;;;;6.80;3.93;;;;;;;;;;5077195;28;20450;-79
2021/08/25 00:19:16;;;;;;;5.17;4.63;;;;;;;;;;5077145;28;20452;-80
2021/08/25 00:21:45;;;;;;;7.40;4.57;;;;;;;;;;5077156;28;20440;-80
2021/08/25 00:24:12;;;;;;;8.90;4.80;;;;;;;;;;5077291;28;20558;-79
2021/08/25 00:26:39;;;;;;;4.47;3.80;;;;;;;;;;5076763;28;20437;-79
2021/08/25 00:29:07;;;;;;;8.40;3.70;;;;;;;;;;5077636;28;20550;-79
2021/08/25 00:31:34;;;;;;;6.23;3.73;;;;;;;;;;5076908;28;20447;-79
2021/08/25 00:34:01;;;;;;;6.07;4.43;;;;;;;;;;5076722;28;20455;-80
2021/08/25 00:36:28;;;;;;;6.40;3.77;;;;;;;;;;5076861;28;20447;-80
2021/08/25 00:38:57;;;;;;;5.10;4.57;;;;;;;;;;5076814;28;20532;-79
2021/08/25 00:41:24;;;;;;;5.63;4.60;;;;;;;;;;5076753;28;20559;-80
2021/08/25 00:43:51;;;;;;;5.43;3.87;;;;;;;;;;5076893;28;20444;-79
2021/08/25 00:46:19;;;;;;;4.93;3.87;;;;;;;;;;5077463;28;20454;-80
2021/08/25 00:48:47;;;;;;;6.20;4.67;;;;;;;;;;5076596;28;20912;-79
2021/08/25 00:51:15;;;;;;;8.40;5.83;;;;;;;;;;5076799;28;20883;-80
2021/08/25 00:53:43;;;;;;;5.07;4.53;;;;;;;;;;5076447;28;20518;-79
2021/08/25 00:56:11;;;;;;;5.10;4.57;;;;;;;;;;5076471;28;20455;-79
2021/08/25 00:58:40;;;;;;;6.87;3.93;;;;;;;;;;5077101;28;20451;-79
2021/08/25 01:01:08;;;;;;;6.27;4.13;;;;;;;;;;5076667;28;20443;-77
2021/08/25 01:03:40;;;;;;;6.27;4.10;;;;;;;;;;5076239;28;20486;-77
2021/08/25 01:06:08;;;;;;;6.67;4.70;;;;;;;;;;5076780;28;20420;-78
2021/08/25 01:08:35;;;;;;;5.70;4.30;;;;;;;;;;5076192;28;20483;-78
2021/08/25 01:11:06;;;;;;;7.90;4.73;;;;;;;;;;5074878;28;20531;-78
2021/08/25 01:13:35;;;;;;;4.83;4.33;;;;;;;;;;5075649;28;20451;-77
2021/08/25 01:16:02;;;;;;;6.07;4.40;;;;;;;;;;5075832;28;20953;-77
2021/08/25 01:18:30;;;;;;;8.13;5.67;;;;;;;;;;5076033;28;20440;-78
2021/08/25 01:20:59;;;;;;;6.37;4.77;;;;;;;;;;5075987;28;20441;-78
2021/08/25 01:23:26;;;;;;;8.03;4.40;;;;;;;;;;5076024;28;20477;-78
2021/08/25 01:25:55;;;;;;;7.17;4.80;;;;;;;;;;5076054;28;20498;-78
2021/08/25 01:28:24;;;;;;;9.07;5.80;;;;;;;;;;5075430;28;20483;-78
2021/08/25 01:30:52;;;;;;;7.50;4.80;;;;;;;;;;5075866;28;20441;-78
2021/08/25 01:33:20;;;;;;;6.90;4.30;;;;;;;;;;5075895;28;20527;-78
2021/08/25 01:35:47;;;;;;;5.80;5.00;;;;;;;;;;5075749;28;20869;-77
2021/08/25 01:38:30;;;;;;;10.00;4.93;;;;;;;;;;5075700;28;20446;-78
2021/08/25 01:40:57;;;;;;;5.10;3.83;;;;;;;;;;5075843;28;20429;-78
2021/08/25 01:43:24;;;;;;;5.27;4.40;;;;;;;;;;5075634;28;20824;-77
2021/08/25 01:45:53;;;;;;;6.77;5.47;;;;;;;;;;5075590;28;20536;-78
2021/08/25 01:48:21;;;;;;;7.10;4.30;;;;;;;;;;5075143;28;20452;-77
2021/08/25 01:50:49;;;;;;;5.23;4.70;;;;;;;;;;5075502;28;20505;-78
2021/08/25 01:53:16;;;;;;;6.60;4.67;;;;;;;;;;5075988;28;20796;-79
2021/08/25 01:55:43;;;;;;;5.83;4.10;;;;;;;;;;5075046;28;20452;-79
2021/08/25 01:58:10;;;;;;;7.67;4.70;;;;;;;;;;5074950;28;20441;-78
2021/08/25 02:00:37;;;;;;;8.57;5.03;;;;;;;;;;5075075;28;20444;-79
2021/08/25 02:03:06;;;;;;;6.27;5.20;;;;;;;;;;5075050;28;20813;-78
2021/08/25 02:05:33;;;;;;;5.83;4.37;;;;;;;;;;5075034;28;20872;-78
2021/08/25 02:08:00;;;;;;;6.63;5.07;;;;;;;;;;5074928;28;20450;-78
2021/08/25 02:10:28;;;;;;;6.60;4.83;;;;;;;;;;5075370;28;20488;-78
2021/08/25 02:12:55;;;;;;;9.40;4.70;;;;;;;;;;5075376;28;20442;-79
2021/08/25 02:15:22;;;;;;;6.30;4.70;;;;;;;;;;5075131;28;20436;-79
2021/08/25 02:17:49;;;;;;;6.43;4.60;;;;;;;;;;5074892;28;20479;-79
2021/08/25 02:20:18;;;;;;;8.70;5.13;;;;;;;;;;5074534;28;20453;-79
2021/08/25 02:22:45;;;;;;;7.13;4.20;;;;;;;;;;5074228;28;20962;-79
2021/08/25 02:25:12;;;;;;;8.03;5.37;;;;;;;;;;5074480;28;20452;-79
2021/08/25 02:27:39;;;;;;;11.10;5.17;;;;;;;;;;5074398;28;20456;-79
2021/08/25 02:30:07;;;;;;;5.70;4.70;;;;;;;;;;5074117;28;20472;-79
2021/08/25 02:32:35;;;;;;;6.27;5.27;;;;;;;;;;5074342;28;20487;-79
2021/08/25 02:35:02;;;;;;;8.13;3.90;;;;;;;;;;5074896;28;20943;-79
2021/08/25 02:37:31;;;;;;;5.00;4.00;;;;;;;;;;5074391;28;20515;-79
2021/08/25 02:39:58;;;;;;;5.13;4.40;;;;;;;;;;5074496;28;20441;-79
2021/08/25 02:42:25;;;;;;;8.27;5.37;;;;;;;;;;5074208;28;20452;-79
2021/08/25 02:44:52;;;;;;;7.50;5.23;;;;;;;;;;5073978;28;20441;-78
2021/08/25 02:47:20;;;;;;;6.90;4.93;;;;;;;;;;5074234;28;20796;-78
2021/08/25 02:49:47;;;;;;;5.17;4.40;;;;;;;;;;5074454;28;20476;-79
2021/08/25 02:52:14;;;;;;;5.50;4.40;;;;;;;;;;5074098;28;20440;-79
2021/08/25 02:54:42;;;;;;;5.43;4.60;;;;;;;;;;5074026;28;20444;-78
2021/08/25 02:57:10;;;;;;;6.90;5.60;;;;;;;;;;5074001;28;20501;-78
2021/08/25 02:59:37;;;;;;;7.03;4.80;;;;;;;;;;5074873;28;20455;-79
2021/08/25 03:02:04;;;;;;;6.63;5.00;;;;;;;;;;5074064;28;20447;-78
2021/08/25 03:04:31;;;;;;;8.50;5.10;;;;;;;;;;5074244;28;20449;-78
2021/08/25 03:06:59;;;;;;;12.83;5.33;;;;;;;;;;5073916;28;20451;-79
2021/08/25 03:09:26;;;;;;;5.80;4.27;;;;;;;;;;5073531;28;20478;-79
2021/08/25 03:11:54;;;;;;;8.47;4.60;;;;;;;;;;5073623;28;20448;-80
2021/08/25 03:14:22;;;;;;;10.17;4.70;;;;;;;;;;5073535;28;20480;-79
2021/08/25 03:16:49;;;;;;;7.83;4.73;;;;;;;;;;5073505;28;20445;-79
2021/08/25 03:19:16;;;;;;;7.73;4.63;;;;;;;;;;5073331;28;20465;-79
2021/08/25 03:21:43;;;;;;;6.90;5.43;;;;;;;;;;5074256;28;20774;-79
2021/08/25 03:24:11;;;;;;;8.70;5.30;;;;;;;;;;5074162;28;20968;-78
2021/08/25 03:26:38;;;;;;;10.33;4.90;;;;;;;;;;5073729;28;20432;-78
2021/08/25 03:29:07;;;;;;;7.10;5.10;;;;;;;;;;5073583;28;20478;-78
2021/08/25 03:31:34;;;;;;;9.23;5.07;;;;;;;;;;5073369;28;20440;-79
2021/08/25 03:34:01;;;;;;;5.23;4.70;;;;;;;;;;5073196;28;20440;-79
2021/08/25 03:36:28;;;;;;;8.63;5.73;;;;;;;;;;5073069;28;20449;-79
2021/08/25 03:38:56;;;;;;;8.23;5.00;;;;;;;;;;5073282;28;21031;-79
2021/08/25 03:41:23;;;;;;;8.50;5.80;;;;;;;;;;5073147;28;20445;-78
2021/08/25 03:43:50;;;;;;;11.33;6.50;;;;;;;;;;5073479;28;20451;-78
2021/08/25 03:46:19;;;;;;;5.73;5.13;;;;;;;;;;5073127;28;20447;-78
2021/08/25 03:48:46;;;;;;;6.97;5.83;;;;;;;;;;5073051;28;20925;-78
2021/08/25 03:51:13;;;;;;;6.10;5.00;;;;;;;;;;5073713;28;20964;-78
2021/08/25 03:53:40;;;;;;;7.60;5.70;;;;;;;;;;5073586;28;20436;-78
2021/08/25 03:56:07;;;;;;;7.80;5.37;;;;;;;;;;5073236;28;20441;-79
2021/08/25 03:58:34;;;;;;;13.33;4.73;;;;;;;;;;5072954;28;20440;-79
2021/08/25 04:01:02;;;;;;;8.07;5.40;;;;;;;;;;5072737;28;20960;-78
2021/08/25 04:03:30;;;;;;;14.20;6.60;;;;;;;;;;5072886;28;20452;-78
2021/08/25 04:05:57;;;;;;;8.07;5.33;;;;;;;;;;5073419;28;20436;-79
2021/08/25 04:08:25;;;;;;;5.40;4.80;;;;;;;;;;5073718;28;20460;-72
2021/08/25 04:10:52;;;;;;;8.93;5.63;;;;;;;;;;5073036;28;20575;-71
2021/08/25 04:13:19;;;;;;;9.20;6.30;;;;;;;;;;5072938;28;20451;-73
2021/08/25 04:15:46;;;;;;;7.60;5.60;;;;;;;;;;5072895;28;20535;-72
2021/08/25 04:18:14;;;;;;;9.57;5.70;;;;;;;;;;5073050;28;20437;-71
2021/08/25 04:20:42;;;;;;;12.10;6.30;;;;;;;;;;5073868;28;20451;-71
2021/08/25 04:23:09;;;;;;;8.70;6.07;;;;;;;;;;5072518;28;20472;-72
2021/08/25 04:25:36;;;;;;;5.60;4.87;;;;;;;;;;5071993;28;20440;-72
2021/08/25 04:28:04;;;;;;;7.60;6.03;;;;;;;;;;5071508;28;20447;-71
2021/08/25 04:30:31;;;;;;;6.53;5.70;;;;;;;;;;5072236;28;20486;-71
2021/08/25 04:32:58;;;;;;;8.80;5.83;;;;;;;;;;5072797;28;20449;-72
2021/08/25 04:35:25;;;;;;;8.23;5.30;;;;;;;;;;5072671;28;20451;-72
2021/08/25 04:37:54;;;;;;;10.33;6.20;;;;;;;;;;5072903;28;20562;-72
2021/08/25 04:40:21;;;;;;;6.90;4.97;;;;;;;;;;5072253;28;20863;-72
2021/08/25 04:42:48;;;;;;;7.47;5.83;;;;;;;;;;5072138;28;20922;-72
2021/08/25 04:45:15;;;;;;;8.40;5.80;;;;;;;;;;5072539;28;20456;-72
2021/08/25 04:47:43;;;;;;;6.50;5.67;;;;;;;;;;5076323;28;20455;-72
2021/08/25 04:50:10;;;;;;;7.27;5.80;;;;;;;;;;5077432;28;20471;-72
2021/08/25 04:52:38;;;;;;;8.27;5.97;;;;;;;;;;5096054;28;20449;-72
2021/08/25 04:55:07;;;;;;;6.17;5.30;;;;;;;;;;5097562;28;20482;-73
2021/08/25 04:57:35;;;;;;;11.37;6.17;;;;;;;;;;5096487;28;20446;-73
2021/08/25 05:00:02;;;;;;;15.90;9.57;;;;;;;;;;5096483;28;20450;-73
2021/08/25 05:02:29;;;;;;;7.57;6.03;;;;;;;;;;5096923;28;20921;-73
2021/08/25 05:04:56;;;;;;;9.47;6.43;;;;;;;;;;5096306;28;20439;-73
2021/08/25 05:07:23;;;;;;;11.57;6.57;;;;;;;;;;5096608;28;20440;-73
2021/08/25 05:09:51;;;;;;;8.50;6.13;;;;;;;;;;5095395;28;20479;-71
2021/08/25 05:12:19;;;;;;;10.87;7.53;;;;;;;;;;5095294;28;20444;-72
2021/08/25 05:14:46;;;;;;;8.43;6.30;;;;;;;;;;5095967;28;20452;-74
2021/08/25 05:17:13;;;;;;;7.90;5.60;;;;;;;;;;5095326;28;20476;-71
2021/08/25 05:19:41;;;;;;;10.60;6.70;;;;;;;;;;5096407;28;20444;-72
2021/08/25 05:22:09;;;;;;;9.27;5.70;;;;;;;;;;5074161;28;20436;-72
2021/08/25 05:24:37;;;;;;;11.23;6.03;;;;;;;;;;5075978;28;20435;-73
2021/08/25 05:27:04;;;;;;;7.70;5.80;;;;;;;;;;5075945;28;20445;-73
2021/08/25 05:29:33;;;;;;;8.23;6.10;;;;;;;;;;5075474;28;20524;-72
2021/08/25 05:32:00;;;;;;;6.23;5.30;;;;;;;;;;5075304;28;20440;-72
2021/08/25 05:34:27;;;;;;;7.93;6.10;;;;;;;;;;5075717;28;20472;-71
2021/08/25 05:36:54;;;;;;;9.90;6.50;;;;;;;;;;5075746;28;20449;-71
2021/08/25 05:39:22;;;;;;;8.80;6.37;;;;;;;;;;5075126;28;20451;-72
2021/08/25 05:41:49;;;;;;;11.63;7.17;;;;;;;;;;5073597;28;20711;-72
2021/08/25 05:44:16;;;;;;;8.57;6.50;;;;;;;;;;5074727;28;20455;-71
2021/08/25 05:46:45;;;;;;;10.03;6.87;;;;;;;;;;5074750;28;20799;-72
2021/08/25 05:49:12;;;;;;;8.83;7.57;;;;;;;;;;5074467;28;20437;-72
2021/08/25 05:51:39;;;;;;;7.00;5.50;;;;;;;;;;5072847;28;20483;-71
2021/08/25 05:54:09;;;;;;;11.00;6.90;;;;;;;;;;5074694;28;20440;-70
2021/08/25 05:56:36;;;;;;;7.93;6.10;;;;;;;;;;5075105;28;20547;-70
2021/08/25 05:59:03;;;;;;;7.70;6.00;;;;;;;;;;5074254;28;20450;-70
2021/08/25 06:01:30;;;;;;;9.37;6.77;;;;;;;;;;5074739;28;20918;-70
2021/08/25 06:03:59;;;;;;;10.03;7.13;;;;;;;;;;5075128;28;20451;-72
2021/08/25 06:06:30;;;;;;;10.53;6.30;;;;;;;;;;5074884;28;20433;-71
2021/08/25 06:08:57;;;;;;;24.73;7.00;;;;;;;;;;5075199;28;20429;-70
2021/08/25 06:11:24;;;;;;;11.13;6.40;;;;;;;;;;5075178;28;20506;-70
2021/08/25 06:13:52;;;;;;;8.97;7.30;;;;;;;;;;5074678;28;20453;-70
2021/08/25 06:16:19;;;;;;;10.43;6.40;;;;;;;;;;5074676;28;20433;-70
2021/08/25 06:18:46;;;;;;;13.53;6.63;;;;;;;;;;5074264;28;20447;-72
2021/08/25 06:21:16;;;;;;;12.10;6.73;;;;;;;;;;5074011;28;20448;-72
2021/08/25 06:23:44;;;;;;;12.03;6.97;;;;;;;;;;5072835;28;20474;-70
2021/08/25 06:26:11;;;;;;;10.37;6.40;;;;;;;;;;5074633;28;20443;-70
2021/08/25 06:28:38;;;;;;;7.53;5.60;;;;;;;;;;5074489;28;20441;-69
2021/08/25 06:31:06;;;;;;;8.37;6.00;;;;;;;;;;5073952;28;20523;-70
2021/08/25 06:33:33;;;;;;;12.40;6.33;;;;;;;;;;5074182;28;20448;-69
2021/08/25 06:36:00;;;;;;;13.80;6.70;;;;;;;;;;5074589;28;20451;-70
2021/08/25 06:38:29;;;;;;;9.97;7.60;;;;;;;;;;5074178;28;20451;-69
2021/08/25 06:40:56;;;;;;;9.37;6.07;;;;;;;;;;5074769;28;20831;-70
2021/08/25 06:43:23;;;;;;;6.97;5.67;;;;;;;;;;5073715;28;20444;-69
2021/08/25 06:45:50;;;;;;;10.13;6.87;;;;;;;;;;5074004;28;20447;-71
2021/08/25 06:48:17;;;;;;;8.67;6.47;;;;;;;;;;5073951;28;20452;-70
2021/08/25 06:50:44;;;;;;;7.93;5.87;;;;;;;;;;5073865;28;20995;-70
2021/08/25 06:53:12;;;;;;;8.63;6.47;;;;;;;;;;5072561;28;20504;-70
2021/08/25 06:55:40;;;;;;;9.27;6.00;;;;;;;;;;5074065;28;20433;-72
2021/08/25 06:58:08;;;;;;;8.30;6.43;;;;;;;;;;5073897;28;20442;-71
2021/08/25 07:00:35;;;;;;;9.57;5.93;;;;;;;;;;5073709;28;20544;-71
2021/08/25 07:03:02;;;;;;;17.23;6.53;;;;;;;;;;5073419;28;20945;-70
2021/08/25 07:05:29;;;;;;;13.53;7.07;;;;;;;;;;5073954;28;20436;-71
2021/08/25 07:07:57;;;;;;;9.80;6.97;;;;;;;;;;5073475;28;20447;-71
2021/08/25 07:10:24;;;;;;;10.07;7.13;;;;;;;;;;5073243;28;20483;-70
2021/08/25 07:12:53;;;;;;;12.67;6.60;;;;;;;;;;5073725;28;20468;-70
2021/08/25 07:15:20;;;;;;;12.13;6.00;;;;;;;;;;5073894;28;20442;-70
2021/08/25 07:17:47;;;;;;;9.70;6.40;;;;;;;;;;5074345;28;20810;-70
2021/08/25 07:20:15;;;;;;;11.20;6.77;;;;;;;;;;5073585;28;20441;-69
2021/08/25 07:22:43;;;;;;;9.40;4.70;;;;;;;;;;5072505;28;20545;-70
2021/08/25 07:25:10;;;;;;;6.10;5.30;;;;;;;;;;5071688;28;20457;-70
2021/08/25 07:27:39;;;;;;;8.00;6.13;;;;;;;;;;5073347;28;20523;-70
2021/08/25 07:30:08;;;;;;;11.47;6.03;;;;;;;;;;5073587;28;20532;-70
2021/08/25 07:32:35;;;;;;;6.97;5.87;;;;;;;;;;5072985;28;20553;-71
2021/08/25 07:35:02;;;;;;;10.40;5.80;;;;;;;;;;5073758;28;20841;-71
2021/08/25 07:37:30;;;;;;;10.80;5.40;;;;;;;;;;5073294;28;20453;-71
2021/08/25 07:39:57;;;;;;;6.83;5.70;;;;;;;;;;5073481;28;20446;-71
2021/08/25 07:42:24;;;;;;;7.80;6.40;;;;;;;;;;5073209;28;20961;-71
2021/08/25 07:44:51;;;;;;;16.53;7.53;;;;;;;;;;5072757;28;20440;-71
2021/08/25 07:47:20;;;;;;;10.83;6.10;;;;;;;;;;5073430;28;20698;-71
2021/08/25 07:49:47;;;;;;;8.63;5.23;;;;;;;;;;5073472;28;20537;-70
2021/08/25 07:52:14;;;;;;;8.30;6.37;;;;;;;;;;5072674;28;20482;-71
2021/08/25 07:54:42;;;;;;;10.57;5.03;;;;;;;;;;5071558;28;20922;-70
2021/08/25 07:57:09;;;;;;;7.50;5.30;;;;;;;;;;5072872;28;20484;-71
2021/08/25 07:59:36;;;;;;;6.57;5.27;;;;;;;;;;5073877;28;20862;-70
2021/08/25 08:02:03;;;;;;;6.23;4.17;;;;;;;;;;5072887;28;20542;-71
2021/08/25 08:04:32;;;;;;;6.63;4.27;;;;;;;;;;5073080;28;20441;-70
2021/08/25 08:06:59;;;;;;;9.20;4.20;;;;;;;;;;5073028;28;20441;-70
2021/08/25 08:09:26;;;;;;;6.57;3.90;;;;;;;;;;5073044;28;20428;-70
2021/08/25 08:11:53;;;;;;;5.23;4.73;;;;;;;;;;5073179;28;20465;-70
2021/08/25 08:14:20;;;;;;;6.93;4.00;;;;;;;;;;5072684;28;20432;-71
2021/08/25 08:16:51;;;;;;;6.20;4.13;;;;;;;;;;5073108;28;20449;-70
2021/08/25 08:19:20;;;;;;;6.80;4.17;;;;;;;;;;5073224;28;20449;-70
2021/08/25 08:21:49;;;;;;;11.97;9.00;;;;;;;;;;5075148;28;20470;-70
2021/08/25 08:24:16;;;;;;;5.33;4.33;;;;;;;;;;5075441;28;20444;-70
2021/08/25 08:26:44;;;;;;;5.30;3.70;;;;;;;;;;5076649;28;20432;-70
2021/08/25 08:29:11;;;;;;;4.50;3.80;;;;;;;;;;5076953;28;20498;-70
2021/08/25 08:31:38;;;;;;;4.77;3.67;;;;;;;;;;5076801;28;20482;-70
2021/08/25 08:34:05;;;;;;;8.67;3.77;;;;;;;;;;5076350;28;20457;-70
2021/08/25 08:36:33;;;;;;;4.70;3.60;;;;;;;;;;5076514;28;20448;-70
2021/08/25 08:39:01;;;;;;;3.83;3.20;;;;;;;;;;5076774;28;20443;-71
2021/08/25 08:41:28;;;;;;;5.93;3.67;;;;;;;;;;5076446;28;20972;-70
2021/08/25 08:43:56;;;;;;;5.20;3.50;;;;;;;;;;5076775;28;20444;-70
2021/08/25 08:46:25;;;;;;;5.70;2.93;;;;;;;;;;5076046;28;20444;-70
2021/08/25 08:48:52;;;;;;;4.60;4.00;;;;;;;;;;5076698;28;20443;-70
2021/08/25 08:51:20;;;;;;;5.57;3.10;;;;;;;;;;5076869;28;20482;-70
2021/08/25 08:53:48;;;;;;;5.87;3.40;;;;;;;;;;5075873;28;20957;-70
2021/08/25 08:56:16;;;;;;;3.70;3.00;;;;;;;;;;5074377;28;20528;-70
2021/08/25 08:58:44;;;;;;;4.50;3.23;;;;;;;;;;5076270;28;20433;-70
2021/08/25 09:01:11;;;;;;;7.20;4.40;;;;;;;;;;5076245;28;20923;-75
2021/08/25 09:03:39;;;;;;;4.73;3.70;;;;;;;;;;5076027;28;20457;-70
2021/08/25 09:06:07;;;;;;;5.73;3.53;;;;;;;;;;5076368;28;20440;-69
2021/08/25 09:08:35;;;;;;;8.43;3.40;;;;;;;;;;5075936;28;20803;-69
2021/08/25 09:11:04;;;;;;;4.63;3.17;;;;;;;;;;5076267;28;20483;-69
2021/08/25 09:13:37;;;;;;;4.83;3.67;;;;;;;;;;5075882;28;20472;-69
2021/08/25 09:16:05;;;;;;;5.00;3.40;;;;;;;;;;5076057;28;20456;-69
2021/08/25 09:18:32;;;;;;;5.07;4.17;;;;;;;;;;5075820;28;20449;-69
2021/08/25 09:20:59;;;;;;;6.03;3.97;;;;;;;;;;5076064;28;20439;-69
2021/08/25 09:23:27;;;;;;;6.87;3.30;;;;;;;;;;5076043;28;20480;-68
2021/08/25 09:25:55;;;;;;;4.70;3.57;;;;;;;;;;5074253;28;20858;-67
2021/08/25 09:28:26;;;;;;;4.90;3.70;;;;;;;;;;5075649;28;20447;-66
2021/08/25 09:30:56;;;;;;;13.57;5.33;;;;;;;;;;5075678;28;20941;-68
2021/08/25 09:33:26;;;;;;;10.33;4.20;;;;;;;;;;5074089;28;20453;-68
2021/08/25 09:35:55;;;;;;;6.87;4.30;;;;;;;;;;5075485;28;20506;-67
2021/08/25 09:38:24;;;;;;;5.73;3.30;;;;;;;;;;5075660;28;20447;-67
2021/08/25 09:40:52;;;;;;;6.97;4.00;;;;;;;;;;5075662;28;20442;-67
2021/08/25 09:43:32;;;;;;;7.73;4.60;;;;;;;;;;5075557;28;20438;-67
2021/08/25 09:46:11;;;;;;;10.00;4.40;;;;;;;;;;5074893;28;20453;-67
2021/08/25 09:48:39;;;;;;;4.97;4.40;;;;;;;;;;5075681;28;20425;-67
2021/08/25 09:51:07;;;;;;;6.70;4.53;;;;;;;;;;5075484;28;20535;-67
2021/08/25 09:53:34;;;;;;;5.33;4.33;;;;;;;;;;5075950;28;20444;-67
2021/08/25 09:56:02;;;;;;;4.33;3.60;;;;;;;;;;5073227;28;20801;-67
2021/08/25 09:58:29;;;;;;;5.03;3.70;;;;;;;;;;5074877;28;20434;-67
2021/08/25 10:00:56;;;;;;;4.90;4.17;;;;;;;;;;5075319;28;20446;-67
2021/08/25 10:03:25;;;;;;;4.60;3.50;;;;;;;;;;5074829;28;20447;-68
2021/08/25 10:05:52;;;;;;;6.70;4.10;;;;;;;;;;5075116;28;20441;-67
2021/08/25 10:08:19;;;;;;;10.77;4.37;;;;;;;;;;5074764;28;20947;-67
2021/08/25 10:10:47;;;;;;;4.27;3.40;;;;;;;;;;5092368;28;20448;-67
2021/08/25 10:13:15;;;;;;;4.53;3.60;;;;;;;;;;5095386;28;20834;-67
2021/08/25 10:15:45;;;;;;;5.57;3.70;;;;;;;;;;5095193;28;20529;-67
2021/08/25 10:18:27;;;;;;;5.43;3.90;;;;;;;;;;5094589;28;20475;-65
2021/08/25 10:20:55;;;;;;;4.60;3.20;;;;;;;;;;5093935;28;20505;-68
2021/08/25 10:23:42;;;;;;;4.40;3.30;;;;;;;;;;5093893;28;21065;-67
2021/08/25 10:26:10;;;;;;;4.90;2.93;;;;;;;;;;5094975;28;20451;-67
2021/08/25 10:28:56;;;;;;;3.83;2.90;;;;;;;;;;5093483;28;20492;-67
2021/08/25 10:31:23;;;;;;;4.13;3.10;;;;;;;;;;5074278;28;20493;-68
2021/08/25 10:34:05;;;;;;;4.20;3.27;;;;;;;;;;5074330;28;20446;-68
2021/08/25 10:36:35;;;;;;;4.83;3.33;;;;;;;;;;5074358;28;20461;-68
2021/08/25 10:39:02;;;;;;;4.47;3.70;;;;;;;;;;5074054;28;20504;-68
2021/08/25 10:41:29;;;;;;;5.27;3.60;;;;;;;;;;5074421;28;20520;-69
2021/08/25 10:43:57;;;;;;;4.23;3.47;;;;;;;;;;5073755;28;20936;-69
2021/08/25 10:46:44;;;;;;;5.70;3.33;;;;;;;;;;5074439;28;20774;-69
2021/08/25 10:49:31;;;;;;;3.60;3.10;;;;;;;;;;5074137;28;20453;-69
2021/08/25 10:52:06;;;;;;;5.23;3.57;;;;;;;;;;5074199;28;20534;-69
2021/08/25 10:54:34;;;;;;;4.67;3.73;;;;;;;;;;5074014;28;20437;-69
2021/08/25 10:57:08;;;;;;;4.27;3.10;;;;;;;;;;5074258;28;20501;-69
2021/08/25 10:59:36;;;;;;;3.70;3.30;;;;;;;;;;5072209;28;20449;-69
2021/08/25 11:02:03;;;;;;;3.20;2.70;;;;;;;;;;5074280;28;20446;-69
2021/08/25 11:04:30;;;;;;;3.87;3.43;;;;;;;;;;5074375;28;20635;-69
2021/08/25 11:07:01;;;;;;;4.07;3.20;;;;;;;;;;5073491;28;20457;-69
2021/08/25 11:09:31;;;;;;;4.03;3.13;;;;;;;;;;5073445;28;20476;-69
2021/08/25 11:11:59;;;;;;;5.63;3.67;;;;;;;;;;5073701;28;20568;-69
2021/08/25 11:14:28;;;;;;;4.67;3.60;;;;;;;;;;5073452;28;20451;-69
2021/08/25 11:16:57;;;;;;;5.00;3.80;;;;;;;;;;5073713;28;20800;-69
2021/08/25 11:19:28;;;;;;;3.53;3.03;;;;;;;;;;5073882;28;20448;-69
2021/08/25 11:21:56;;;;;;;4.47;3.50;;;;;;;;;;5073404;28;20437;-69
2021/08/25 11:24:23;;;;;;;10.93;4.10;;;;;;;;;;5073193;28;20431;-68
2021/08/25 11:26:52;;;;;;;7.50;3.23;;;;;;;;;;5072735;28;21150;-69
2021/08/25 11:29:20;;;;;;;3.90;3.50;;;;;;;;;;5074164;28;20444;-68
2021/08/25 11:31:48;;;;;;;7.43;3.50;;;;;;;;;;5073415;28;20503;-68
2021/08/25 11:34:16;;;;;;;4.83;4.00;;;;;;;;;;5073177;28;20450;-68
2021/08/25 11:36:53;;;;;;;5.37;3.90;;;;;;;;;;5072932;28;20947;-68
2021/08/25 11:39:20;;;;;;;6.00;3.50;;;;;;;;;;5073564;28;20516;-68
2021/08/25 11:41:48;;;;;;;4.60;3.13;;;;;;;;;;5073534;28;20537;-68
2021/08/25 11:44:16;;;;;;;5.93;3.70;;;;;;;;;;5072791;28;20448;-68
2021/08/25 11:46:43;;;;;;;14.10;9.93;;;;;;;;;;5072834;28;20445;-68
2021/08/25 11:49:11;;;;;;;6.80;4.10;;;;;;;;;;5072602;28;20478;-68
2021/08/25 11:51:39;;;;;;;10.63;4.33;;;;;;;;;;5071933;28;20449;-69
2021/08/25 11:54:06;;;;;;;6.33;4.23;;;;;;;;;;5072683;28;20442;-69
2021/08/25 11:56:33;;;;;;;4.27;3.83;;;;;;;;;;5071557;28;20434;-69
2021/08/25 11:59:10;;;;;;;6.13;4.47;;;;;;;;;;5071314;28;20444;-69
2021/08/25 12:01:38;;;;;;;5.73;4.03;;;;;;;;;;5072814;28;20464;-69
2021/08/25 12:04:05;;;;;;;6.83;4.00;;;;;;;;;;5073465;28;20455;-68
2021/08/25 12:06:47;;;;;;;6.83;4.70;;;;;;;;;;5072958;28;20450;-68
2021/08/25 12:09:29;;;;;;;4.90;3.60;;;;;;;;;;5073734;28;20433;-69
2021/08/25 12:11:56;;;;;;;5.07;3.47;;;;;;;;;;5073061;28;20926;-68
2021/08/25 12:14:23;;;;;;;8.40;4.43;;;;;;;;;;5072851;28;20454;-68
2021/08/25 12:17:05;;;;;;;5.67;4.43;;;;;;;;;;5072891;28;20447;-68
2021/08/25 12:19:34;;;;;;;8.57;4.30;;;;;;;;;;5073412;28;20493;-68
2021/08/25 12:22:16;;;;;;;5.63;4.40;;;;;;;;;;5072789;28;20500;-69
2021/08/25 12:24:44;;;;;;;7.43;4.40;;;;;;;;;;5072080;28;20453;-68
2021/08/25 12:27:12;;;;;;;4.27;3.80;;;;;;;;;;5071920;28;20486;-68
2021/08/25 12:29:42;;;;;;;6.70;4.70;;;;;;;;;;5072669;28;20527;-68
2021/08/25 12:32:11;;;;;;;6.80;4.80;;;;;;;;;;5072924;28;20521;-69
2021/08/25 12:34:53;;;;;;;5.70;4.87;;;;;;;;;;5073218;28;20805;-69
2021/08/25 12:37:21;;;;;;;6.50;4.90;;;;;;;;;;5072730;28;20432;-69
2021/08/25 12:39:48;;;;;;;6.60;4.47;;;;;;;;;;5072863;28;20530;-69
2021/08/25 12:42:15;;;;;;;7.10;5.17;;;;;;;;;;5072705;28;20443;-68
2021/08/25 12:44:42;;;;;;;7.00;4.37;;;;;;;;;;5072890;28;20446;-68
2021/08/25 12:47:12;;;;;;;5.93;4.73;;;;;;;;;;5072548;28;20451;-68
2021/08/25 12:49:39;;;;;;;6.80;5.10;;;;;;;;;;5071929;28;20435;-68
2021/08/25 12:52:07;;;;;;;7.43;5.13;;;;;;;;;;5073020;28;20440;-68
2021/08/25 12:54:34;;;;;;;5.83;4.67;;;;;;;;;;5072519;28;20443;-68
2021/08/25 12:57:01;;;;;;;4.60;3.80;;;;;;;;;;5072835;28;20440;-67
2021/08/25 12:59:29;;;;;;;7.53;4.60;;;;;;;;;;5070651;28;20466;-67
2021/08/25 13:01:56;;;;;;;7.70;5.00;;;;;;;;;;5072309;28;20796;-68
2021/08/25 13:04:24;;;;;;;5.40;4.13;;;;;;;;;;5073201;28;20453;-67
2021/08/25 13:06:51;;;;;;;7.30;5.20;;;;;;;;;;5073627;28;20440;-65
2021/08/25 13:09:19;;;;;;;5.63;4.20;;;;;;;;;;5076216;28;20524;-65
2021/08/25 13:11:46;;;;;;;6.03;4.43;;;;;;;;;;5076062;28;20447;-65
2021/08/25 13:14:14;;;;;;;6.40;5.50;;;;;;;;;;5075787;28;20480;-66
2021/08/25 13:16:41;;;;;;;7.17;4.27;;;;;;;;;;5076566;28;20793;-66
2021/08/25 13:19:08;;;;;;;6.40;4.40;;;;;;;;;;5076519;28;20487;-66
2021/08/25 13:21:37;;;;;;;6.10;4.60;;;;;;;;;;5075342;28;20448;-66
2021/08/25 13:24:04;;;;;;;5.33;4.50;;;;;;;;;;5075875;28;20491;-66
2021/08/25 13:26:31;;;;;;;6.13;5.27;;;;;;;;;;5075824;28;20463;-66
2021/08/25 13:28:59;;;;;;;6.37;4.30;;;;;;;;;;5074303;28;20444;-67
2021/08/25 13:31:26;;;;;;;8.30;5.40;;;;;;;;;;5075159;28;20441;-66
2021/08/25 13:33:53;;;;;;;8.13;5.60;;;;;;;;;;5075102;28;20494;-66
2021/08/25 13:36:21;;;;;;;7.60;5.60;;;;;;;;;;5075632;28;20531;-66
2021/08/25 13:38:49;;;;;;;6.70;5.87;;;;;;;;;;5074931;28;20448;-65
2021/08/25 13:41:16;;;;;;;7.30;5.50;;;;;;;;;;5075623;28;20527;-66
2021/08/25 13:43:43;;;;;;;11.10;6.00;;;;;;;;;;5075282;28;20446;-66
2021/08/25 13:46:11;;;;;;;7.77;5.20;;;;;;;;;;5075155;28;20449;-66
2021/08/25 13:48:38;;;;;;;8.17;5.40;;;;;;;;;;5074888;28;20565;-66
2021/08/25 13:51:05;;;;;;;8.90;6.57;;;;;;;;;;5075163;28;20449;-66
2021/08/25 13:53:33;;;;;;;6.83;6.13;;;;;;;;;;5074759;28;20488;-66
2021/08/25 13:56:02;;;;;;;8.07;6.50;;;;;;;;;;5075332;28;20441;-66
2021/08/25 13:58:29;;;;;;;7.50;6.03;;;;;;;;;;5073629;28;20760;-66
2021/08/25 14:00:56;;;;;;;7.93;5.80;;;;;;;;;;5074809;28;20467;-66
2021/08/25 14:03:23;;;;;;;10.20;6.53;;;;;;;;;;5074783;28;20444;-66
2021/08/25 14:05:51;;;;;;;8.73;6.93;;;;;;;;;;5074796;28;20451;-66
2021/08/25 14:08:18;;;;;;;11.20;7.10;;;;;;;;;;5075098;28;20444;-66
2021/08/25 14:10:45;;;;;;;9.07;8.17;;;;;;;;;;5074771;28;20448;-65
2021/08/25 14:13:13;;;;;;;5.10;4.60;;;;;;;;;;5074538;28;20823;-65
2021/08/25 14:15:41;;;;;;;8.43;6.63;;;;;;;;;;5074669;28;20524;-66
2021/08/25 14:18:08;;;;;;;10.23;9.20;;;;;;;;;;5073650;28;20479;-66
2021/08/25 14:20:35;;;;;;;8.97;6.67;;;;;;;;;;5074539;28;20455;-66
2021/08/25 14:23:03;;;;;;;9.00;7.97;;;;;;;;;;5074304;28;20477;-66
2021/08/25 14:25:30;;;;;;;9.30;6.90;;;;;;;;;;5074718;28;20824;-65
2021/08/25 14:27:58;;;;;;;7.67;6.87;;;;;;;;;;5074043;28;20670;-65
2021/08/25 14:30:26;;;;;;;6.73;5.80;;;;;;;;;;5074476;28;20527;-66
2021/08/25 14:32:53;;;;;;;7.17;5.23;;;;;;;;;;5073406;28;20477;-65
2021/08/25 14:35:21;;;;;;;6.00;4.47;;;;;;;;;;5074414;28;20458;-66
2021/08/25 14:37:49;;;;;;;6.30;4.20;;;;;;;;;;5074102;28;20449;-66
2021/08/25 14:40:16;;;;;;;5.83;5.23;;;;;;;;;;5073907;28;20493;-65
2021/08/25 14:42:43;;;;;;;8.40;5.37;;;;;;;;;;5074359;28;20447;-66
2021/08/25 14:45:11;;;;;;;7.63;4.73;;;;;;;;;;5073921;28;20804;-66
2021/08/25 14:47:40;;;;;;;7.53;5.17;;;;;;;;;;5072146;28;20470;-67